createdAt,value
2018-09-30T00:00:34.175Z,7.60
2018-09-30T00:05:38.086Z,8.03
2018-09-30T00:10:42.637Z,7.67
2018-09-30T00:15:49.610Z,7.30
2018-09-30T00:20:53.378Z,7.17
2018-09-30T00:26:02.499Z,6.27
2018-09-30T00:31:06.765Z,6.43
2018-09-30T00:36:11.202Z,6.47
2018-09-30T00:41:14.883Z,6.97
2018-09-30T00:46:18.732Z,7.27
2018-09-30T00:51:22.628Z,6.73
2018-09-30T00:56:26.568Z,6.70
2018-09-30T01:01:30.431Z,7.33
2018-09-30T01:06:34.498Z,7.10
2018-09-30T01:11:48.902Z,7.97
2018-09-30T01:16:52.703Z,6.47
2018-09-30T01:22:20.343Z,6.80
2018-09-30T01:38:36.339Z,6.53
2018-09-30T01:43:40.341Z,6.73
2018-09-30T01:48:44.100Z,7.40
2018-09-30T01:53:47.954Z,6.67
2018-09-30T01:58:52.081Z,6.27
2018-09-30T02:03:56.341Z,6.63
2018-09-30T02:09:00.101Z,7.00
2018-09-30T02:14:05.220Z,6.90
2018-09-30T02:19:16.652Z,6.93
2018-09-30T02:24:21.090Z,6.40
2018-09-30T03:02:27.261Z,4.60
2018-09-30T03:07:36.243Z,5.10
2018-09-30T03:12:40.362Z,4.20
2018-09-30T03:17:44.476Z,4.50
2018-09-30T03:22:48.428Z,4.23
2018-09-30T03:27:52.251Z,4.90
2018-09-30T03:32:56.383Z,5.00
2018-09-30T03:38:00.920Z,4.60
2018-09-30T03:43:04.879Z,4.90
2018-09-30T03:48:08.959Z,4.77
2018-09-30T03:53:13.012Z,4.33
2018-09-30T03:58:17.455Z,4.20
2018-09-30T04:03:21.436Z,4.43
2018-09-30T04:14:00.391Z,4.53
2018-09-30T04:19:04.374Z,4.47
2018-09-30T04:24:09.429Z,4.30
2018-09-30T04:29:13.967Z,4.93
2018-09-30T04:34:17.926Z,4.73
2018-09-30T04:39:22.149Z,4.33
2018-09-30T04:44:26.018Z,4.63
2018-09-30T04:49:29.984Z,4.47
2018-09-30T04:54:33.759Z,4.53
2018-09-30T04:59:38.179Z,4.80
2018-09-30T05:04:42.067Z,4.77
2018-09-30T05:09:46.445Z,4.37
2018-09-30T05:14:50.150Z,4.30
2018-09-30T05:19:55.311Z,3.87
2018-09-30T05:24:59.981Z,4.07
2018-09-30T05:30:04.168Z,4.03
2018-09-30T05:35:08.535Z,4.20
2018-09-30T05:40:12.499Z,4.20
2018-09-30T05:45:16.611Z,3.93
2018-09-30T05:50:20.456Z,4.17
2018-09-30T05:55:24.671Z,3.80
2018-09-30T06:00:29.168Z,4.27
2018-09-30T06:05:33.385Z,5.20
2018-09-30T06:10:37.507Z,4.70
2018-09-30T06:15:41.208Z,4.60
2018-09-30T06:20:44.840Z,4.30
2018-09-30T06:25:48.707Z,4.37
2018-09-30T06:30:53.064Z,4.00
2018-09-30T06:35:57.280Z,4.47
2018-09-30T06:41:01.441Z,4.03
2018-09-30T06:46:05.168Z,4.03
2018-09-30T06:51:08.987Z,4.27
2018-09-30T06:56:12.814Z,3.93
2018-09-30T07:01:16.835Z,4.63
2018-09-30T07:06:20.409Z,4.73
2018-09-30T07:11:24.169Z,5.60
2018-09-30T07:16:27.916Z,6.23
2018-09-30T07:21:32.296Z,5.50
2018-09-30T07:26:36.164Z,5.33
2018-09-30T07:31:40.638Z,5.03
2018-09-30T07:36:44.457Z,4.97
2018-09-30T07:41:48.193Z,5.80
2018-09-30T07:46:52.216Z,5.13
2018-09-30T07:51:56.242Z,5.67
2018-09-30T07:57:00.177Z,5.07
2018-09-30T08:02:04.442Z,5.30
2018-09-30T08:07:08.267Z,4.77
2018-09-30T08:12:11.993Z,5.23
2018-09-30T08:17:15.953Z,4.73
2018-09-30T08:22:19.983Z,4.37
2018-09-30T08:27:23.915Z,3.00
2018-09-30T08:32:28.005Z,2.60
2018-09-30T08:37:37.282Z,2.67
2018-09-30T08:42:41.161Z,2.27
2018-09-30T08:47:45.163Z,2.67
2018-09-30T08:52:49.376Z,2.37
2018-09-30T08:57:53.516Z,2.60
2018-09-30T09:02:57.167Z,2.63
2018-09-30T09:08:01.171Z,3.20
2018-09-30T09:13:05.716Z,3.67
2018-09-30T09:18:10.252Z,3.40
2018-09-30T09:23:14.388Z,2.83
2018-09-30T09:28:18.778Z,3.17
2018-09-30T09:33:22.775Z,2.80
2018-09-30T09:38:26.492Z,3.60
2018-09-30T09:43:31.291Z,3.07
2018-09-30T09:48:35.500Z,3.03
2018-09-30T09:53:39.254Z,3.53
2018-09-30T09:58:43.439Z,2.93
2018-09-30T10:03:47.196Z,2.97
2018-09-30T10:08:51.732Z,3.10
2018-09-30T10:13:56.223Z,2.80
2018-09-30T10:19:00.468Z,2.97
2018-09-30T10:24:04.219Z,3.17
2018-09-30T10:29:08.055Z,3.03
2018-09-30T10:34:11.867Z,2.67
2018-09-30T10:39:17.464Z,3.10
2018-09-30T10:44:21.273Z,3.07
2018-09-30T10:49:25.407Z,3.07
2018-09-30T10:54:29.076Z,3.20
2018-09-30T10:59:32.845Z,2.77
2018-09-30T11:04:37.256Z,2.67
2018-09-30T11:09:41.007Z,2.80
2018-09-30T11:14:45.287Z,2.60
2018-09-30T11:19:49.687Z,3.37
2018-09-30T11:24:53.336Z,3.17
2018-09-30T11:29:57.550Z,3.03
2018-09-30T11:35:01.299Z,3.10
2018-09-30T11:40:05.316Z,3.20
2018-09-30T11:45:09.192Z,3.57
2018-09-30T11:50:13.108Z,3.20
2018-09-30T11:55:16.864Z,3.27
2018-09-30T12:00:20.843Z,3.60
2018-09-30T12:05:24.772Z,3.30
2018-09-30T12:10:28.934Z,3.20
2018-09-30T12:15:33.201Z,3.17
2018-09-30T12:20:37.038Z,3.00
2018-09-30T12:25:40.676Z,3.07
2018-09-30T12:30:44.411Z,3.37
2018-09-30T12:35:48.320Z,2.83
2018-09-30T12:40:52.188Z,3.00
2018-09-30T12:45:56.330Z,3.20
2018-09-30T12:51:00.374Z,3.07
2018-09-30T12:56:04.280Z,2.80
2018-09-30T13:01:08.306Z,3.03
2018-09-30T13:06:12.132Z,3.00
2018-09-30T13:11:15.831Z,2.80
2018-09-30T13:16:19.616Z,2.50
2018-09-30T13:21:23.527Z,2.57
2018-09-30T13:26:27.281Z,2.60
2018-09-30T13:31:31.364Z,2.27
2018-09-30T13:36:35.170Z,2.60
2018-09-30T13:41:39.963Z,3.43
2018-09-30T13:46:43.828Z,3.37
2018-09-30T13:51:47.611Z,3.50
2018-09-30T13:56:51.370Z,3.40
2018-09-30T14:07:28.172Z,3.30
2018-09-30T14:12:32.088Z,3.17
2018-09-30T14:17:35.873Z,3.30
2018-09-30T14:22:39.668Z,3.83
2018-09-30T14:27:43.440Z,3.77
2018-09-30T14:32:47.237Z,3.53
2018-09-30T14:37:52.846Z,3.20
2018-09-30T14:42:56.698Z,3.20
2018-09-30T14:48:00.399Z,3.00
2018-09-30T14:53:04.286Z,2.60
2018-09-30T14:58:07.927Z,2.70
2018-09-30T15:03:11.527Z,3.00
2018-09-30T15:08:15.535Z,3.00
2018-09-30T15:13:19.631Z,2.47
2018-09-30T15:18:23.341Z,2.50
2018-09-30T15:23:27.277Z,3.17
2018-09-30T15:28:31.433Z,3.13
2018-09-30T15:33:35.091Z,3.10
2018-09-30T15:38:39.214Z,3.50
2018-09-30T15:43:43.493Z,3.20
2018-09-30T15:48:47.325Z,3.03
2018-09-30T15:53:51.253Z,3.10
2018-09-30T15:58:55.193Z,3.30
2018-09-30T16:03:58.962Z,3.53
2018-09-30T16:09:02.867Z,3.20
2018-09-30T16:14:06.928Z,3.50
2018-09-30T16:19:26.456Z,3.20
2018-09-30T16:24:30.412Z,2.87
2018-09-30T16:29:34.645Z,2.70
2018-09-30T16:34:38.530Z,2.50
2018-09-30T16:39:42.606Z,2.80
2018-09-30T16:44:46.292Z,3.27
2018-09-30T16:49:50.163Z,2.90
2018-09-30T16:54:54.018Z,2.80
2018-09-30T16:59:57.894Z,2.23
2018-09-30T17:05:01.936Z,2.50
2018-09-30T17:10:06.196Z,2.50
2018-09-30T17:15:09.809Z,2.53
2018-09-30T17:20:13.510Z,2.17
2018-09-30T17:25:17.837Z,2.50
2018-09-30T17:30:22.058Z,2.47
2018-09-30T17:35:25.789Z,2.33
2018-09-30T17:40:30.003Z,2.40
2018-09-30T17:45:33.561Z,3.27
2018-09-30T17:50:37.838Z,2.83
2018-09-30T17:55:41.513Z,2.70
2018-09-30T18:00:45.190Z,2.87
2018-09-30T18:05:49.063Z,2.97
2018-09-30T18:10:53.123Z,3.20
2018-09-30T18:15:56.964Z,3.60
2018-09-30T18:21:00.808Z,3.60
2018-09-30T18:26:04.516Z,3.50
2018-09-30T18:31:08.548Z,3.10
2018-09-30T18:36:12.399Z,3.43
2018-09-30T18:41:16.686Z,3.00
2018-09-30T18:46:20.961Z,3.13
2018-09-30T18:51:24.804Z,3.10
2018-09-30T18:56:28.652Z,3.33
2018-09-30T19:01:32.640Z,3.60
2018-09-30T19:06:36.432Z,4.40
2018-09-30T19:11:40.101Z,4.40
2018-09-30T19:16:44.202Z,4.23
2018-09-30T19:21:48.217Z,4.73
2018-09-30T19:26:52.607Z,5.10
2018-09-30T19:31:56.441Z,4.13
2018-09-30T19:37:00.096Z,5.00
2018-09-30T19:42:04.000Z,4.13
2018-09-30T19:47:10.038Z,4.20
2018-09-30T19:52:14.116Z,4.73
2018-09-30T19:57:18.013Z,4.83
2018-09-30T20:02:21.839Z,4.40
2018-09-30T20:07:25.928Z,5.00
2018-09-30T20:12:30.224Z,5.50
2018-09-30T20:17:34.264Z,5.13
2018-09-30T20:22:38.376Z,5.73
2018-09-30T20:27:42.436Z,5.50
2018-09-30T20:32:46.752Z,5.70
2018-09-30T20:37:56.233Z,5.90
2018-09-30T20:42:59.983Z,5.53
2018-09-30T20:48:04.029Z,5.50
2018-09-30T20:53:07.833Z,5.17
2018-09-30T20:58:11.627Z,5.70
2018-09-30T21:03:16.097Z,5.77
2018-09-30T21:08:19.991Z,5.47
2018-09-30T21:13:23.821Z,6.07
2018-09-30T21:18:28.063Z,6.50
2018-09-30T21:23:32.201Z,5.90
2018-09-30T21:28:36.164Z,6.17
2018-09-30T21:33:39.996Z,6.87
2018-09-30T21:38:57.181Z,5.77
2018-09-30T21:44:01.011Z,6.57
2018-09-30T21:49:04.735Z,7.90
2018-09-30T21:54:08.676Z,6.50
2018-09-30T21:59:12.371Z,6.30
2018-09-30T22:04:16.345Z,6.90
2018-09-30T22:09:21.390Z,7.40
2018-09-30T22:14:32.300Z,8.10
2018-09-30T22:19:36.035Z,7.67
2018-09-30T22:24:39.713Z,7.27
2018-09-30T22:29:43.698Z,6.80
2018-09-30T22:34:47.401Z,7.00
2018-09-30T22:39:51.455Z,7.00
2018-09-30T22:44:55.511Z,7.57
2018-09-30T22:49:59.223Z,6.93
2018-09-30T22:55:03.365Z,7.30
2018-09-30T23:00:07.715Z,8.10
2018-09-30T23:05:11.704Z,8.03
2018-09-30T23:10:15.919Z,7.60
2018-09-30T23:15:19.704Z,7.40
2018-09-30T23:20:23.346Z,6.57
2018-09-30T23:25:27.095Z,7.00
2018-09-30T23:30:30.796Z,6.50
2018-09-30T23:35:34.605Z,6.93
2018-09-30T23:40:38.238Z,6.13
2018-09-30T23:45:42.053Z,6.63
2018-09-30T23:50:45.764Z,5.60
2018-09-30T23:55:49.806Z,5.77
